createdAt,value
2018-03-06T00:00:44.336Z,36.00
2018-03-06T00:01:45.082Z,33.70
2018-03-06T00:02:45.786Z,33.50
2018-03-06T00:03:46.502Z,33.60
2018-03-06T00:04:47.193Z,33.70
2018-03-06T00:05:47.897Z,36.20
2018-03-06T00:06:48.630Z,35.60
2018-03-06T00:07:49.313Z,33.70
2018-03-06T00:08:50.021Z,33.40
2018-03-06T00:09:50.711Z,34.90
2018-03-06T00:10:51.433Z,35.70
2018-03-06T00:11:52.144Z,34.50
2018-03-06T00:12:52.832Z,33.60
2018-03-06T00:13:53.534Z,34.70
2018-03-06T00:14:54.250Z,33.90
2018-03-06T00:15:54.956Z,34.60
2018-03-06T00:16:55.656Z,35.00
2018-03-06T00:17:56.346Z,33.40
2018-03-06T00:18:57.055Z,34.40
2018-03-06T00:19:57.813Z,35.10
2018-03-06T00:20:58.508Z,34.30
2018-03-06T00:21:59.253Z,34.20
2018-03-06T00:22:59.987Z,35.00
2018-03-06T00:24:00.675Z,34.90
2018-03-06T00:25:01.377Z,35.40
2018-03-06T00:26:02.062Z,35.50
2018-03-06T00:27:02.902Z,34.80
2018-03-06T00:28:03.612Z,35.10
2018-03-06T00:29:04.272Z,36.80
2018-03-06T00:30:04.936Z,35.20
2018-03-06T00:31:05.644Z,34.90
2018-03-06T00:32:06.360Z,37.20
2018-03-06T00:33:07.085Z,34.50
2018-03-06T00:34:07.800Z,34.40
2018-03-06T00:35:08.492Z,35.10
2018-03-06T00:37:09.483Z,35.30
2018-03-06T00:38:10.208Z,36.10
2018-03-06T00:39:10.904Z,36.30
2018-03-06T00:40:11.637Z,35.40
2018-03-06T00:42:12.643Z,35.20
2018-03-06T00:43:13.349Z,34.80
2018-03-06T00:44:14.054Z,34.80
2018-03-06T00:45:14.764Z,35.50
2018-03-06T00:46:16.441Z,35.60
2018-03-06T00:47:17.147Z,34.20
2018-03-06T00:49:18.102Z,34.30
2018-03-06T00:51:19.088Z,35.90
2018-03-06T00:52:19.784Z,35.60
2018-03-06T00:53:20.487Z,36.20
2018-03-06T00:54:21.195Z,36.20
2018-03-06T00:55:21.898Z,35.60
2018-03-06T00:56:22.535Z,35.50
2018-03-06T00:57:23.245Z,36.40
2018-03-06T00:58:23.951Z,35.80
2018-03-06T00:59:24.676Z,38.60
2018-03-06T01:00:25.387Z,36.20
2018-03-06T01:01:26.083Z,38.90
2018-03-06T01:02:26.845Z,39.00
2018-03-06T01:03:28.404Z,39.10
2018-03-06T01:05:29.368Z,39.10
2018-03-06T01:06:30.061Z,41.40
2018-03-06T01:07:30.796Z,43.60
2018-03-06T01:08:31.476Z,40.30
2018-03-06T01:09:32.179Z,43.00
2018-03-06T01:10:32.923Z,42.10
2018-03-06T01:11:33.598Z,41.80
2018-03-06T01:12:34.302Z,40.90
2018-03-06T01:13:34.991Z,42.10
2018-03-06T01:14:35.677Z,42.40
2018-03-06T01:15:36.364Z,42.30
2018-03-06T01:16:37.043Z,41.00
2018-03-06T01:17:37.752Z,43.10
2018-03-06T01:18:38.452Z,45.20
2018-03-06T01:19:39.158Z,42.80
2018-03-06T01:20:39.760Z,43.60
2018-03-06T01:21:40.455Z,42.50
2018-03-06T01:22:41.161Z,43.20
2018-03-06T01:23:41.914Z,43.50
2018-03-06T01:24:42.626Z,44.60
2018-03-06T01:25:43.340Z,44.20
2018-03-06T01:26:44.036Z,44.40
2018-03-06T01:27:44.771Z,44.70
2018-03-06T01:28:45.459Z,45.20
2018-03-06T01:29:46.153Z,42.50
2018-03-06T01:30:46.831Z,43.00
2018-03-06T01:31:47.535Z,44.10
2018-03-06T01:32:48.279Z,44.80
2018-03-06T01:33:48.962Z,43.20
2018-03-06T01:34:49.649Z,44.00
2018-03-06T01:35:50.347Z,44.90
2018-03-06T01:36:51.044Z,43.90
2018-03-06T01:37:51.798Z,43.20
2018-03-06T01:38:52.503Z,45.30
2018-03-06T01:39:53.179Z,43.30
2018-03-06T01:40:53.905Z,46.20
2018-03-06T01:41:54.596Z,45.20
2018-03-06T01:42:55.300Z,46.10
2018-03-06T01:43:56.017Z,45.10
2018-03-06T01:44:56.706Z,45.30
2018-03-06T01:45:57.423Z,47.20
2018-03-06T01:46:58.135Z,47.00
2018-03-06T01:47:58.846Z,46.10
2018-03-06T01:49:59.831Z,47.30
2018-03-06T01:52:00.758Z,47.70
2018-03-06T01:53:01.484Z,46.00
2018-03-06T01:54:02.172Z,46.30
2018-03-06T01:55:02.906Z,47.30
2018-03-06T01:56:03.612Z,47.30
2018-03-06T01:57:04.294Z,47.40
2018-03-06T01:58:05.077Z,47.80
2018-03-06T01:59:05.793Z,46.10
2018-03-06T02:00:06.488Z,47.40
2018-03-06T02:01:07.215Z,47.20
2018-03-06T02:02:07.931Z,46.70
2018-03-06T02:03:08.650Z,47.30
2018-03-06T02:04:09.332Z,46.90
2018-03-06T02:05:10.054Z,47.50
2018-03-06T02:06:10.758Z,46.30
2018-03-06T02:07:11.467Z,46.20
2018-03-06T02:08:12.261Z,50.00
2018-03-06T02:10:13.153Z,46.30
2018-03-06T02:12:14.147Z,51.20
2018-03-06T02:13:14.926Z,48.80
2018-03-06T02:14:15.655Z,50.70
2018-03-06T02:15:16.357Z,47.70
2018-03-06T02:16:17.062Z,48.00
2018-03-06T02:17:17.756Z,52.00
2018-03-06T02:18:18.474Z,51.50
2018-03-06T02:19:19.172Z,49.30
2018-03-06T02:20:19.877Z,51.80
2018-03-06T02:21:20.570Z,48.30
2018-03-06T02:22:21.275Z,48.40
2018-03-06T02:23:21.980Z,50.00
2018-03-06T02:24:22.669Z,51.70
2018-03-06T02:25:23.381Z,50.00
2018-03-06T02:26:24.064Z,46.90
2018-03-06T02:27:24.664Z,49.10
2018-03-06T02:28:25.397Z,48.80
2018-03-06T02:29:26.097Z,51.00
2018-03-06T02:30:26.778Z,47.10
2018-03-06T02:31:27.461Z,48.90
2018-03-06T02:32:28.160Z,48.10
2018-03-06T02:34:29.129Z,49.10
2018-03-06T02:35:29.811Z,47.80
2018-03-06T02:36:30.502Z,50.80
2018-03-06T02:37:31.222Z,48.00
2018-03-06T02:38:31.905Z,47.80
2018-03-06T02:39:32.644Z,48.00
2018-03-06T02:40:33.413Z,47.90
2018-03-06T02:41:34.114Z,48.40
2018-03-06T02:43:35.076Z,48.40
2018-03-06T02:44:35.813Z,49.30
2018-03-06T02:45:36.488Z,50.00
2018-03-06T02:46:37.180Z,55.50
2018-03-06T02:47:37.942Z,51.20
2018-03-06T02:48:38.645Z,51.70
2018-03-06T02:50:39.579Z,56.70
2018-03-06T02:51:40.240Z,52.70
2018-03-06T02:52:40.947Z,57.90
2018-03-06T02:53:41.645Z,60.50
2018-03-06T02:54:42.341Z,60.80
2018-03-06T02:55:43.098Z,59.90
2018-03-06T02:56:43.799Z,54.90
2018-03-06T02:57:44.522Z,58.90
2018-03-06T02:58:45.226Z,61.20
2018-03-06T02:59:45.920Z,57.20
2018-03-06T03:00:46.633Z,56.20
2018-03-06T03:01:47.399Z,55.20
2018-03-06T03:02:48.063Z,57.50
2018-03-06T03:03:48.770Z,54.30
2018-03-06T03:04:49.471Z,54.20
2018-03-06T03:05:50.186Z,52.40
2018-03-06T03:06:50.902Z,54.20
2018-03-06T03:07:51.601Z,53.80
2018-03-06T03:08:52.322Z,55.40
2018-03-06T03:09:53.020Z,54.50
2018-03-06T03:10:53.736Z,54.80
2018-03-06T03:11:54.415Z,56.30
2018-03-06T03:12:55.115Z,55.90
2018-03-06T03:13:55.832Z,52.60
2018-03-06T03:14:56.548Z,52.90
2018-03-06T03:15:57.274Z,54.60
2018-03-06T03:16:57.948Z,51.70
2018-03-06T03:17:58.637Z,54.60
2018-03-06T03:18:59.333Z,55.50
2018-03-06T03:21:00.322Z,54.10
2018-03-06T03:22:01.003Z,54.20
2018-03-06T03:23:01.725Z,54.90
2018-03-06T03:24:02.445Z,60.90
2018-03-06T03:25:03.132Z,55.10
2018-03-06T03:26:03.840Z,56.10
2018-03-06T03:27:04.518Z,55.70
2018-03-06T03:28:05.255Z,56.00
2018-03-06T03:29:05.970Z,55.00
2018-03-06T03:30:06.704Z,54.80
2018-03-06T03:31:07.414Z,59.00
2018-03-06T03:32:08.100Z,55.40
2018-03-06T03:33:08.822Z,54.70
2018-03-06T03:34:09.582Z,53.80
2018-03-06T03:35:10.311Z,53.90
2018-03-06T03:36:11.018Z,57.40
2018-03-06T03:38:12.040Z,52.30
2018-03-06T03:39:12.771Z,53.20
2018-03-06T03:40:13.476Z,53.00
2018-03-06T03:41:14.199Z,53.20
2018-03-06T03:42:14.894Z,53.40
2018-03-06T03:43:15.593Z,52.90
2018-03-06T03:44:16.302Z,54.60
2018-03-06T03:45:17.002Z,56.20
2018-03-06T03:46:17.752Z,54.30
2018-03-06T03:47:18.462Z,53.70
2018-03-06T03:48:19.208Z,53.80
2018-03-06T03:49:19.894Z,54.10
2018-03-06T03:51:20.867Z,52.60
2018-03-06T03:52:21.567Z,52.90
2018-03-06T03:54:22.528Z,52.90
2018-03-06T03:55:23.235Z,53.90
2018-03-06T03:56:23.968Z,54.50
2018-03-06T03:58:24.835Z,51.90
2018-03-06T03:59:25.526Z,52.10
2018-03-06T04:00:26.204Z,52.40
2018-03-06T04:01:26.909Z,55.00
2018-03-06T04:02:27.622Z,52.90
2018-03-06T04:04:28.681Z,54.20
2018-03-06T04:06:29.675Z,54.20
2018-03-06T04:07:30.377Z,54.60
2018-03-06T04:08:31.079Z,52.60
2018-03-06T04:10:32.042Z,54.30
2018-03-06T04:11:32.736Z,52.50
2018-03-06T04:12:34.326Z,52.30
2018-03-06T04:13:35.003Z,52.90
2018-03-06T04:14:35.685Z,54.30
2018-03-06T04:15:36.384Z,56.20
2018-03-06T04:17:37.380Z,54.10
2018-03-06T04:18:38.063Z,55.60
2018-03-06T04:19:38.748Z,60.90
2018-03-06T04:20:39.451Z,58.60
2018-03-06T04:21:40.156Z,57.70
2018-03-06T04:22:40.860Z,57.40
2018-03-06T04:23:41.648Z,59.00
2018-03-06T04:24:42.344Z,53.80
2018-03-06T04:25:43.073Z,58.50
2018-03-06T04:26:43.751Z,58.00
2018-03-06T04:28:44.671Z,58.00
2018-03-06T04:29:45.358Z,63.90
2018-03-06T04:30:46.121Z,60.70
2018-03-06T04:31:46.808Z,62.50
2018-03-06T04:32:47.490Z,67.70
2018-03-06T04:33:48.187Z,64.20
2018-03-06T04:34:48.871Z,64.20
2018-03-06T04:35:49.586Z,65.00
2018-03-06T04:36:50.260Z,69.60
2018-03-06T04:37:50.941Z,70.30
2018-03-06T04:38:51.642Z,76.50
2018-03-06T04:39:52.339Z,80.40
2018-03-06T04:40:53.025Z,78.50
2018-03-06T04:41:53.708Z,84.90
2018-03-06T04:43:54.674Z,91.60
2018-03-06T04:44:55.376Z,97.50
2018-03-06T04:46:57.218Z,104.90
2018-03-06T04:47:57.929Z,105.50
2018-03-06T04:48:58.671Z,102.70
2018-03-06T04:49:59.377Z,94.80
2018-03-06T04:51:00.068Z,93.20
2018-03-06T04:53:01.071Z,80.80
2018-03-06T04:54:01.794Z,75.20
2018-03-06T04:55:02.492Z,70.70
2018-03-06T04:56:03.183Z,66.00
2018-03-06T04:57:03.909Z,67.00
2018-03-06T04:58:04.676Z,65.70
2018-03-06T04:59:05.387Z,58.40
2018-03-06T05:01:06.366Z,63.20
2018-03-06T05:02:07.061Z,58.70
2018-03-06T05:03:07.737Z,65.10
2018-03-06T05:04:08.484Z,63.30
2018-03-06T05:05:09.179Z,63.30
2018-03-06T05:06:09.871Z,64.20
2018-03-06T05:08:10.825Z,59.70
2018-03-06T05:10:11.806Z,60.40
2018-03-06T05:11:12.505Z,59.20
2018-03-06T05:12:13.174Z,64.30
2018-03-06T05:13:13.872Z,61.20
2018-03-06T05:14:14.581Z,66.00
2018-03-06T05:16:15.563Z,66.00
2018-03-06T05:17:16.242Z,59.00
2018-03-06T05:18:16.950Z,59.20
2018-03-06T05:19:18.132Z,57.80
2018-03-06T05:20:18.800Z,59.70
2018-03-06T05:21:19.536Z,57.20
2018-03-06T05:22:20.180Z,65.60
2018-03-06T05:23:20.887Z,59.10
2018-03-06T05:24:21.591Z,60.40
2018-03-06T05:25:22.282Z,58.20
2018-03-06T05:26:22.977Z,56.30
2018-03-06T05:27:23.645Z,56.00
2018-03-06T05:28:24.343Z,57.40
2018-03-06T05:29:25.039Z,57.20
2018-03-06T05:30:25.818Z,59.60
2018-03-06T05:31:26.470Z,59.20
2018-03-06T05:32:27.162Z,64.50
2018-03-06T05:33:27.850Z,60.30
2018-03-06T05:34:28.596Z,58.70
2018-03-06T05:35:29.296Z,57.80
2018-03-06T05:36:30.037Z,60.10
2018-03-06T05:37:30.737Z,57.50
2018-03-06T05:38:31.444Z,57.10
2018-03-06T05:39:32.157Z,59.10
2018-03-06T05:40:32.846Z,59.20
2018-03-06T05:41:33.531Z,57.60
2018-03-06T05:42:34.214Z,62.00
2018-03-06T05:43:34.851Z,67.30
2018-03-06T05:44:36.526Z,70.30
2018-03-06T05:45:37.257Z,66.40
2018-03-06T05:46:37.949Z,63.80
2018-03-06T05:47:38.636Z,68.30
2018-03-06T05:49:39.617Z,67.00
2018-03-06T05:50:40.325Z,58.80
2018-03-06T05:51:41.037Z,59.40
2018-03-06T05:52:41.936Z,59.80
2018-03-06T05:53:42.703Z,58.70
2018-03-06T05:54:43.425Z,59.20
2018-03-06T05:55:44.110Z,64.80
2018-03-06T05:56:44.829Z,65.90
2018-03-06T05:57:45.566Z,65.10
2018-03-06T05:58:46.279Z,57.20
2018-03-06T05:59:46.999Z,59.10
2018-03-06T06:00:47.727Z,58.00
2018-03-06T06:02:48.696Z,58.20
2018-03-06T06:03:49.437Z,61.70
2018-03-06T06:04:50.136Z,59.40
2018-03-06T06:05:50.852Z,58.60
2018-03-06T06:06:51.570Z,65.70
2018-03-06T06:08:52.607Z,63.90
2018-03-06T06:09:54.219Z,66.20
2018-03-06T06:10:54.946Z,64.20
2018-03-06T06:11:55.685Z,68.80
2018-03-06T06:12:56.384Z,71.50
2018-03-06T06:13:57.109Z,70.20
2018-03-06T06:14:57.750Z,69.90
2018-03-06T06:15:58.392Z,66.60
2018-03-06T06:17:59.304Z,63.00
2018-03-06T06:18:59.959Z,61.10
2018-03-06T06:20:00.595Z,67.60
2018-03-06T06:21:01.277Z,69.80
2018-03-06T06:22:04.239Z,69.70
2018-03-06T06:23:04.895Z,63.90
2018-03-06T06:24:05.550Z,66.30
2018-03-06T06:25:06.199Z,64.00
2018-03-06T06:26:06.858Z,66.10
2018-03-06T06:27:07.546Z,63.70
2018-03-06T06:28:08.236Z,64.20
2018-03-06T06:29:08.887Z,67.20
2018-03-06T06:30:09.519Z,68.90
2018-03-06T06:31:10.167Z,65.50
2018-03-06T06:32:10.812Z,68.40
2018-03-06T06:33:12.150Z,69.80
2018-03-06T06:34:12.836Z,68.40
2018-03-06T06:35:13.564Z,73.40
2018-03-06T06:36:14.424Z,67.80
2018-03-06T06:37:15.132Z,67.40
2018-03-06T06:38:15.814Z,67.60
2018-03-06T06:39:16.480Z,71.10
2018-03-06T06:40:17.132Z,70.90
2018-03-06T06:41:17.766Z,68.20
2018-03-06T06:43:18.674Z,69.30
2018-03-06T06:44:19.320Z,70.80
2018-03-06T06:45:19.939Z,68.60
2018-03-06T06:46:20.577Z,67.20
2018-03-06T06:47:21.215Z,67.00
2018-03-06T06:48:21.857Z,64.50
2018-03-06T06:49:22.519Z,68.80
2018-03-06T06:50:24.141Z,64.60
2018-03-06T06:51:24.767Z,61.60
2018-03-06T06:52:25.465Z,69.60
2018-03-06T06:53:26.138Z,73.50
2018-03-06T06:54:26.760Z,65.00
2018-03-06T06:55:27.377Z,71.10
2018-03-06T06:56:28.024Z,66.90
2018-03-06T06:57:28.703Z,70.00
2018-03-06T06:59:29.635Z,67.90
2018-03-06T07:00:30.270Z,74.30
2018-03-06T07:02:31.220Z,81.90
2018-03-06T07:03:31.856Z,78.90
2018-03-06T07:04:32.477Z,75.40
2018-03-06T07:06:33.393Z,78.90
2018-03-06T07:07:34.055Z,79.80
2018-03-06T07:09:35.002Z,78.90
2018-03-06T07:11:35.906Z,68.90
2018-03-06T07:12:36.561Z,60.00
2018-03-06T07:13:37.238Z,61.60
2018-03-06T07:14:37.860Z,61.40
2018-03-06T07:16:38.826Z,61.40
2018-03-06T07:17:39.479Z,68.00
2018-03-06T07:18:40.117Z,65.40
2018-03-06T07:19:40.716Z,69.10
2018-03-06T07:20:41.913Z,66.20
2018-03-06T07:21:42.566Z,67.00
2018-03-06T07:22:43.428Z,65.30
2018-03-06T07:23:44.139Z,61.80
2018-03-06T07:24:44.787Z,61.70
2018-03-06T07:25:45.403Z,64.70
2018-03-06T07:26:46.060Z,63.80
2018-03-06T07:27:46.728Z,66.00
2018-03-06T07:28:47.375Z,65.70
2018-03-06T07:29:47.995Z,63.70
2018-03-06T07:30:49.209Z,63.30
2018-03-06T07:31:49.862Z,64.30
2018-03-06T07:32:50.561Z,65.90
2018-03-06T07:33:51.241Z,62.50
2018-03-06T07:34:51.873Z,62.70
2018-03-06T07:35:52.498Z,65.20
2018-03-06T07:36:53.699Z,67.60
2018-03-06T07:37:54.385Z,66.00
2018-03-06T07:39:56.274Z,64.80
2018-03-06T07:40:56.890Z,63.40
2018-03-06T07:41:57.501Z,61.60
2018-03-06T07:42:58.137Z,65.00
2018-03-06T07:43:58.758Z,62.00
2018-03-06T07:44:59.381Z,62.50
2018-03-06T07:46:00.022Z,62.30
2018-03-06T07:48:00.921Z,65.50
2018-03-06T07:49:01.572Z,67.20
2018-03-06T07:50:02.195Z,66.50
2018-03-06T07:51:02.827Z,66.30
2018-03-06T07:52:03.523Z,67.10
2018-03-06T07:53:04.213Z,64.20
2018-03-06T07:54:04.902Z,68.70
2018-03-06T07:55:05.799Z,69.60
2018-03-06T07:56:06.442Z,71.80
2018-03-06T07:57:07.081Z,73.50
2018-03-06T07:58:07.746Z,73.10
2018-03-06T07:59:08.384Z,68.70
2018-03-06T08:00:09.045Z,70.10
2018-03-06T08:01:09.679Z,72.70
2018-03-06T08:02:10.324Z,66.00
2018-03-06T08:03:10.996Z,68.40
2018-03-06T08:04:11.617Z,66.60
2018-03-06T08:05:12.256Z,68.60
2018-03-06T08:06:12.896Z,67.80
2018-03-06T08:07:13.580Z,63.50
2018-03-06T08:08:14.285Z,67.50
2018-03-06T08:09:15.003Z,66.20
2018-03-06T08:10:15.651Z,66.40
2018-03-06T08:11:16.289Z,62.40
2018-03-06T08:12:16.923Z,61.60
2018-03-06T08:13:17.551Z,61.80
2018-03-06T08:15:18.451Z,61.70
2018-03-06T08:16:19.722Z,63.00
2018-03-06T08:17:20.357Z,62.70
2018-03-06T08:18:21.033Z,61.30
2018-03-06T08:19:21.673Z,60.80
2018-03-06T08:20:22.330Z,60.20
2018-03-06T08:21:22.947Z,61.20
2018-03-06T08:22:24.229Z,64.40
2018-03-06T08:23:24.891Z,62.20
2018-03-06T08:24:25.566Z,63.00
2018-03-06T08:25:26.189Z,62.10
2018-03-06T08:26:26.818Z,60.70
2018-03-06T08:27:27.441Z,64.00
2018-03-06T08:28:28.087Z,63.70
2018-03-06T08:29:28.784Z,62.30
2018-03-06T08:30:29.418Z,60.60
2018-03-06T08:31:30.073Z,59.70
2018-03-06T08:32:30.716Z,60.70
2018-03-06T08:33:31.371Z,59.70
2018-03-06T08:34:32.996Z,60.90
2018-03-06T08:35:33.618Z,59.70
2018-03-06T08:36:34.334Z,61.30
2018-03-06T08:37:35.012Z,62.50
2018-03-06T08:38:35.688Z,61.40
2018-03-06T08:40:36.588Z,61.90
2018-03-06T08:41:37.252Z,61.80
2018-03-06T08:43:38.163Z,63.70
2018-03-06T08:44:38.805Z,64.80
2018-03-06T08:45:39.432Z,61.40
2018-03-06T08:46:40.086Z,61.50
2018-03-06T08:47:40.709Z,64.00
2018-03-06T08:48:41.360Z,61.80
2018-03-06T08:49:42.027Z,62.60
2018-03-06T08:50:42.660Z,61.50
2018-03-06T08:51:43.300Z,64.10
2018-03-06T08:52:43.972Z,65.60
2018-03-06T08:53:44.608Z,65.30
2018-03-06T08:54:45.431Z,63.20
2018-03-06T08:55:46.140Z,65.50
2018-03-06T08:56:46.768Z,65.00
2018-03-06T08:58:47.705Z,63.80
2018-03-06T09:00:48.601Z,65.40
2018-03-06T09:01:49.283Z,64.40
2018-03-06T09:03:50.185Z,62.70
2018-03-06T09:04:50.814Z,63.90
2018-03-06T09:05:51.450Z,65.00
2018-03-06T09:06:52.081Z,66.30
2018-03-06T09:07:52.718Z,63.10
2018-03-06T09:08:53.362Z,65.00
2018-03-06T09:09:54.040Z,66.10
2018-03-06T09:10:54.705Z,62.40
2018-03-06T09:12:00.980Z,0.00
2018-03-06T09:13:01.620Z,66.90
2018-03-06T09:14:02.285Z,63.80
2018-03-06T09:15:02.911Z,61.90
2018-03-06T09:16:03.630Z,62.50
2018-03-06T09:17:04.314Z,66.00
2018-03-06T09:18:04.991Z,64.50
2018-03-06T09:19:06.200Z,62.70
2018-03-06T09:20:06.841Z,65.50
2018-03-06T09:21:08.497Z,71.20
2018-03-06T09:22:09.117Z,68.00
2018-03-06T09:23:09.740Z,72.50
2018-03-06T09:24:10.436Z,69.20
2018-03-06T09:25:11.138Z,74.50
2018-03-06T09:26:11.806Z,74.50
2018-03-06T09:27:12.482Z,76.80
2018-03-06T09:28:13.136Z,77.20
2018-03-06T09:29:13.792Z,78.60
2018-03-06T09:30:15.503Z,73.70
2018-03-06T09:31:16.127Z,65.00
2018-03-06T09:32:16.766Z,59.90
2018-03-06T09:33:17.407Z,60.50
2018-03-06T09:35:18.329Z,60.00
2018-03-06T09:36:19.057Z,58.90
2018-03-06T09:38:19.987Z,59.90
2018-03-06T09:39:20.640Z,59.70
2018-03-06T09:41:21.560Z,62.30
2018-03-06T09:42:22.213Z,61.50
2018-03-06T09:43:22.860Z,58.80
2018-03-06T09:44:23.491Z,59.60
2018-03-06T09:45:24.166Z,58.80
2018-03-06T09:46:24.807Z,59.30
2018-03-06T09:47:25.493Z,60.30
2018-03-06T09:48:26.127Z,59.90
2018-03-06T09:49:26.788Z,60.60
2018-03-06T09:50:27.430Z,60.40
2018-03-06T09:52:28.359Z,59.10
2018-03-06T09:53:29.030Z,60.00
2018-03-06T09:54:29.664Z,60.20
2018-03-06T09:55:30.308Z,59.60
2018-03-06T09:56:31.057Z,59.40
2018-03-06T09:57:31.759Z,59.20
2018-03-06T09:58:32.411Z,56.60
2018-03-06T09:59:33.079Z,58.60
2018-03-06T10:00:33.720Z,58.30
2018-03-06T10:01:34.406Z,58.40
2018-03-06T10:02:35.064Z,59.50
2018-03-06T10:03:35.727Z,60.30
2018-03-06T10:04:36.397Z,61.00
2018-03-06T10:05:37.067Z,59.40
2018-03-06T10:06:37.736Z,57.00
2018-03-06T10:07:38.396Z,57.90
2018-03-06T10:08:39.046Z,58.40
2018-03-06T10:09:39.695Z,59.90
2018-03-06T10:10:40.405Z,57.60
2018-03-06T10:11:41.046Z,60.00
2018-03-06T10:12:41.695Z,57.70
2018-03-06T10:13:42.321Z,59.00
2018-03-06T10:14:43.049Z,57.00
2018-03-06T10:15:43.798Z,60.10
2018-03-06T10:16:44.432Z,58.70
2018-03-06T10:17:45.088Z,60.70
2018-03-06T10:18:45.730Z,59.40
2018-03-06T10:19:46.380Z,59.20
2018-03-06T10:20:47.065Z,61.00
2018-03-06T10:22:47.980Z,59.80
2018-03-06T10:23:48.644Z,59.30
2018-03-06T10:24:49.309Z,60.40
2018-03-06T10:25:49.950Z,59.70
2018-03-06T10:26:50.581Z,60.00
2018-03-06T10:27:51.289Z,58.80
2018-03-06T10:28:51.933Z,58.20
2018-03-06T10:29:52.558Z,58.20
2018-03-06T10:30:53.242Z,59.40
2018-03-06T10:31:53.901Z,60.30
2018-03-06T10:32:54.575Z,61.30
2018-03-06T10:33:55.212Z,62.00
2018-03-06T10:35:56.152Z,62.50
2018-03-06T10:36:56.786Z,61.00
2018-03-06T10:37:57.466Z,58.50
2018-03-06T10:38:58.095Z,59.00
2018-03-06T10:39:58.734Z,60.70
2018-03-06T10:40:59.376Z,61.40
2018-03-06T10:42:00.058Z,62.40
2018-03-06T10:43:00.715Z,63.90
2018-03-06T10:44:01.363Z,63.30
2018-03-06T10:46:02.290Z,63.70
2018-03-06T10:47:02.955Z,63.30
2018-03-06T10:48:03.677Z,62.90
2018-03-06T10:50:04.584Z,63.40
2018-03-06T10:51:05.240Z,63.00
2018-03-06T10:52:05.872Z,58.90
2018-03-06T10:53:06.529Z,58.60
2018-03-06T10:54:07.169Z,59.20
2018-03-06T10:55:07.824Z,58.00
2018-03-06T10:56:08.480Z,59.10
2018-03-06T10:57:09.127Z,60.20
2018-03-06T10:58:09.814Z,60.20
2018-03-06T10:59:10.483Z,59.30
2018-03-06T11:00:11.114Z,65.30
2018-03-06T11:01:11.764Z,63.20
2018-03-06T11:02:12.462Z,65.40
2018-03-06T11:03:13.199Z,64.60
2018-03-06T11:04:13.839Z,66.80
2018-03-06T11:05:14.463Z,64.70
2018-03-06T11:06:15.080Z,63.80
2018-03-06T11:07:15.735Z,65.30
2018-03-06T11:08:17.030Z,63.10
2018-03-06T11:09:17.736Z,64.50
2018-03-06T11:10:18.395Z,59.60
2018-03-06T11:11:19.068Z,64.70
2018-03-06T11:12:19.740Z,64.00
2018-03-06T11:13:20.398Z,64.10
2018-03-06T11:14:21.777Z,61.60
2018-03-06T11:15:23.545Z,65.40
2018-03-06T11:16:24.283Z,64.50
2018-03-06T11:17:24.960Z,62.40
2018-03-06T11:18:25.658Z,62.40
2018-03-06T11:19:26.348Z,61.50
2018-03-06T11:20:27.031Z,60.20
2018-03-06T11:21:27.710Z,62.80
2018-03-06T11:22:28.349Z,64.70
2018-03-06T11:24:29.260Z,59.60
2018-03-06T11:25:29.889Z,60.50
2018-03-06T11:26:30.507Z,60.80
2018-03-06T11:27:31.127Z,60.80
2018-03-06T11:28:31.811Z,61.80
2018-03-06T11:30:32.708Z,59.30
2018-03-06T11:31:33.324Z,57.20
2018-03-06T11:32:33.930Z,59.40
2018-03-06T11:33:34.576Z,62.40
2018-03-06T11:34:35.207Z,63.60
2018-03-06T11:35:35.875Z,62.70
2018-03-06T11:36:37.292Z,61.00
2018-03-06T11:37:37.938Z,63.60
2018-03-06T11:38:38.722Z,61.70
2018-03-06T11:39:39.355Z,62.90
2018-03-06T11:40:39.998Z,62.90
2018-03-06T11:41:40.654Z,60.60
2018-03-06T11:43:41.741Z,63.60
2018-03-06T11:44:42.367Z,65.50
2018-03-06T11:45:43.032Z,64.00
2018-03-06T11:46:43.653Z,63.60
2018-03-06T11:47:44.285Z,61.90
2018-03-06T11:48:44.956Z,63.80
2018-03-06T11:49:45.645Z,61.60
2018-03-06T11:50:46.330Z,66.10
2018-03-06T11:51:47.040Z,64.40
2018-03-06T11:52:47.770Z,63.50
2018-03-06T11:53:48.430Z,63.00
2018-03-06T11:54:49.080Z,65.70
2018-03-06T11:55:49.711Z,63.70
2018-03-06T11:56:50.347Z,64.20
2018-03-06T11:57:50.972Z,63.00
2018-03-06T11:58:51.641Z,62.50
2018-03-06T11:59:52.591Z,62.10
2018-03-06T12:00:53.229Z,65.90
2018-03-06T12:01:53.884Z,62.50
2018-03-06T12:02:54.526Z,61.20
2018-03-06T12:03:55.226Z,65.40
2018-03-06T12:04:55.901Z,63.30
2018-03-06T12:05:56.547Z,61.70
2018-03-06T12:06:57.241Z,64.60
2018-03-06T12:07:57.886Z,62.90
2018-03-06T12:08:58.540Z,64.30
2018-03-06T12:09:59.150Z,63.00
2018-03-06T12:10:59.779Z,67.30
2018-03-06T12:12:00.504Z,69.20
2018-03-06T12:14:01.409Z,65.80
2018-03-06T12:15:02.165Z,64.10
2018-03-06T12:16:02.784Z,63.60
2018-03-06T12:18:03.676Z,61.90
2018-03-06T12:19:04.343Z,63.10
2018-03-06T12:20:04.958Z,64.20
2018-03-06T12:21:05.601Z,64.90
2018-03-06T12:22:06.225Z,62.70
2018-03-06T12:23:06.881Z,64.70
2018-03-06T12:24:07.543Z,62.10
2018-03-06T12:25:08.215Z,64.10
2018-03-06T12:26:08.872Z,60.60
2018-03-06T12:27:09.532Z,62.60
2018-03-06T12:28:10.145Z,62.80
2018-03-06T12:29:10.785Z,62.90
2018-03-06T12:30:11.402Z,63.20
2018-03-06T12:31:12.035Z,62.30
2018-03-06T12:32:12.713Z,59.20
2018-03-06T12:33:13.404Z,62.50
2018-03-06T12:34:14.084Z,61.70
2018-03-06T12:35:14.711Z,62.20
2018-03-06T12:36:15.333Z,62.30
2018-03-06T12:38:16.287Z,60.60
2018-03-06T12:39:16.948Z,60.40
2018-03-06T12:40:17.567Z,64.70
2018-03-06T12:41:18.232Z,63.00
2018-03-06T12:42:18.841Z,62.40
2018-03-06T12:43:19.472Z,62.60
2018-03-06T12:44:20.160Z,62.20
2018-03-06T12:45:20.780Z,62.50
2018-03-06T12:46:21.435Z,61.30
2018-03-06T12:47:22.095Z,63.00
2018-03-06T12:48:22.719Z,63.80
2018-03-06T12:49:23.373Z,61.10
2018-03-06T12:51:24.416Z,60.70
2018-03-06T12:52:25.054Z,59.50
2018-03-06T12:53:25.746Z,58.80
2018-03-06T12:54:26.429Z,59.50
2018-03-06T12:55:27.033Z,58.40
2018-03-06T12:56:27.673Z,58.90
2018-03-06T12:57:28.324Z,58.20
2018-03-06T12:58:28.994Z,60.50
2018-03-06T12:59:29.656Z,60.10
2018-03-06T13:00:30.306Z,60.30
2018-03-06T13:01:30.975Z,53.80
2018-03-06T13:02:31.613Z,53.90
2018-03-06T13:04:32.628Z,55.60
2018-03-06T13:05:33.279Z,52.90
2018-03-06T13:06:33.901Z,54.90
2018-03-06T13:07:34.535Z,57.90
2018-03-06T13:08:35.165Z,57.90
2018-03-06T13:09:35.798Z,58.60
2018-03-06T13:10:36.500Z,59.40
2018-03-06T13:11:37.147Z,59.20
2018-03-06T13:12:37.786Z,60.40
2018-03-06T13:13:38.469Z,58.30
2018-03-06T13:14:39.173Z,56.90
2018-03-06T13:15:39.810Z,56.10
2018-03-06T13:16:40.438Z,55.60
2018-03-06T13:17:41.066Z,56.60
2018-03-06T13:18:41.688Z,55.10
2018-03-06T13:19:42.339Z,55.80
2018-03-06T13:20:42.960Z,55.70
2018-03-06T13:21:43.579Z,54.80
2018-03-06T13:22:44.244Z,56.00
2018-03-06T13:23:44.884Z,57.10
2018-03-06T13:24:45.564Z,54.50
2018-03-06T13:25:46.189Z,55.90
2018-03-06T13:26:46.873Z,56.00
2018-03-06T13:28:47.791Z,55.10
2018-03-06T13:29:48.466Z,54.60
2018-03-06T13:30:49.089Z,53.90
2018-03-06T13:31:49.733Z,54.40
2018-03-06T13:32:50.356Z,54.60
2018-03-06T13:33:51.753Z,55.20
2018-03-06T13:34:52.483Z,54.80
2018-03-06T13:35:53.112Z,58.10
2018-03-06T13:37:54.050Z,56.60
2018-03-06T13:38:54.686Z,56.70
2018-03-06T13:40:55.585Z,56.40
2018-03-06T13:41:56.197Z,56.10
2018-03-06T13:42:56.827Z,57.70
2018-03-06T13:43:57.472Z,57.50
2018-03-06T13:44:58.088Z,58.80
2018-03-06T13:45:58.748Z,57.60
2018-03-06T13:46:59.392Z,58.70
2018-03-06T13:49:00.298Z,57.20
2018-03-06T13:51:01.289Z,56.70
2018-03-06T13:52:01.943Z,58.20
2018-03-06T13:53:02.618Z,55.60
2018-03-06T13:54:03.263Z,56.10
2018-03-06T13:55:03.891Z,58.60
2018-03-06T13:56:04.676Z,57.80
2018-03-06T13:57:05.338Z,59.00
2018-03-06T13:58:05.968Z,58.20
2018-03-06T13:59:06.642Z,57.40
2018-03-06T14:00:07.250Z,57.30
2018-03-06T14:01:07.937Z,57.60
2018-03-06T14:02:08.561Z,56.40
2018-03-06T14:03:09.286Z,55.80
2018-03-06T14:04:09.926Z,57.60
2018-03-06T14:05:10.546Z,57.30
2018-03-06T14:06:11.193Z,57.00
2018-03-06T14:08:12.272Z,57.20
2018-03-06T14:09:12.906Z,56.20
2018-03-06T14:10:13.545Z,56.60
2018-03-06T14:11:14.196Z,55.00
2018-03-06T14:12:14.937Z,56.00